首页
METAR-TAF:

METAR-TAF

机场 :

阿克托比, 哈萨克斯坦

纬度: 50-17N, 经度: 057-09E, 海拔: 227米

当前天气观测

该预报发布于26分钟前的20:30 UTC
风速4节,风向,在东转东北东转东南之间变化
温度 17°C
湿度 42%
气压 1021 hPa
能见度10公里或以上
1500米以下无云,无积雨云

METAR: UATT 222030Z 08002MPS 060V120 CAVOK 17/04 Q1021 R13/70D NOSIG RMK QFE746/0994

时间: 01:56 (20:56 UTC)

预报

该预报发布于3小时和56分钟前的17:00 UTC
预报有效从22日的 18点(UTC)到 23日的 18点(UTC)
风速6节,风向
能见度10公里或以上
1500米以下无云,无积雨云
短暂存在
从 23日的 00点(UTC)到 23日的 12点(UTC)
风速10节,风向东南

TAF: UATT 221700Z 2218/2318 08003MPS CAVOK TX30/2312Z TN13/2301Z TEMPO 2300/2312 14005MPS

超过4000个机场的气象观测和天气预报(METAR&TAF报告)。

可查询的气象台以黄色和红色小点在地图上表示。

将鼠标移到小点上方,可查看气象台名称。

然后点击查看天气观测和预报。

如需切换地图:点击带黑十字的绿色按钮放大地图;点击带横线的绿色按钮缩小地图;或者点击绿色箭头查看邻近地区的地图。


METAR-TAF: